createdAt,value
2023-12-24T00:00:55.184Z,9.73
2023-12-24T00:03:27.809Z,9.23
2023-12-24T00:05:58.424Z,12.13
2023-12-24T00:08:26.506Z,12.13
2023-12-24T00:10:54.089Z,12.83
2023-12-24T00:13:21.602Z,12.57
2023-12-24T00:15:49.891Z,12.53
2023-12-24T00:18:19.933Z,11.00
2023-12-24T00:20:53.458Z,15.27
2023-12-24T00:23:22.118Z,11.90
2023-12-24T00:25:49.569Z,13.03
2023-12-24T00:28:20.303Z,12.53
2023-12-24T00:30:56.001Z,16.00
2023-12-24T00:33:31.060Z,9.97
2023-12-24T00:36:01.990Z,11.80
2023-12-24T00:38:31.337Z,13.83
2023-12-24T00:41:00.606Z,12.53
2023-12-24T00:43:29.401Z,13.50
2023-12-24T00:45:57.291Z,12.47
2023-12-24T00:48:25.057Z,12.63
2023-12-24T00:50:52.538Z,13.23
2023-12-24T00:53:20.774Z,11.80
2023-12-24T00:55:53.833Z,11.30
2023-12-24T00:58:25.103Z,11.57
2023-12-24T01:00:57.208Z,8.83
2023-12-24T01:03:26.710Z,10.23
2023-12-24T01:05:54.388Z,9.20
2023-12-24T01:08:22.042Z,9.17
2023-12-24T01:10:53.560Z,10.33
2023-12-24T01:13:21.750Z,10.50
2023-12-24T01:15:50.387Z,8.50
2023-12-24T01:18:21.532Z,6.60
2023-12-24T01:20:49.738Z,7.97
2023-12-24T01:23:17.243Z,6.37
2023-12-24T01:25:44.777Z,7.13
2023-12-24T01:28:12.662Z,7.97
2023-12-24T01:30:40.387Z,9.03
2023-12-24T01:33:08.593Z,8.27
2023-12-24T01:35:36.544Z,7.60
2023-12-24T01:38:04.257Z,7.60
2023-12-24T01:40:31.934Z,8.87
2023-12-24T01:42:59.685Z,9.20
2023-12-24T01:45:27.227Z,9.50
2023-12-24T01:47:55.043Z,8.33
2023-12-24T01:50:22.725Z,6.53
2023-12-24T01:52:50.686Z,8.50
2023-12-24T01:55:18.446Z,9.30
2023-12-24T01:57:46.274Z,8.67
2023-12-24T02:00:15.115Z,8.43
2023-12-24T02:02:43.746Z,8.97
2023-12-24T02:05:11.350Z,9.33
2023-12-24T02:07:39.601Z,8.00
2023-12-24T02:10:07.503Z,8.03
2023-12-24T02:12:36.439Z,6.67
2023-12-24T02:15:04.179Z,9.13
2023-12-24T02:17:34.544Z,9.13
2023-12-24T02:20:02.045Z,7.43
2023-12-24T02:22:29.607Z,10.23
2023-12-24T02:24:58.041Z,9.07
2023-12-24T02:27:49.286Z,9.13
2023-12-24T02:30:27.697Z,10.63
2023-12-24T02:32:57.451Z,9.60
2023-12-24T02:35:28.201Z,12.10
2023-12-24T02:37:55.884Z,9.30
2023-12-24T02:40:23.430Z,10.93
2023-12-24T02:42:51.120Z,11.20
2023-12-24T02:45:18.812Z,12.67
2023-12-24T02:47:47.331Z,11.67
2023-12-24T02:50:19.427Z,11.50
2023-12-24T02:52:47.688Z,12.83
2023-12-24T02:55:15.194Z,14.67
2023-12-24T02:57:42.986Z,13.43
2023-12-24T03:00:11.724Z,13.07
2023-12-24T03:02:40.262Z,13.63
2023-12-24T03:05:08.067Z,13.67
2023-12-24T03:07:35.496Z,16.87
2023-12-24T03:10:02.953Z,15.57
2023-12-24T03:12:30.402Z,16.60
2023-12-24T03:14:57.902Z,17.70
2023-12-24T03:17:25.340Z,16.60
2023-12-24T03:19:52.819Z,14.27
2023-12-24T03:22:21.280Z,15.33
2023-12-24T03:24:48.735Z,14.77
2023-12-24T03:27:16.645Z,14.80
2023-12-24T03:29:45.530Z,14.10
2023-12-24T03:32:13.351Z,11.90
2023-12-24T03:34:41.927Z,16.30
2023-12-24T03:37:09.696Z,15.60
2023-12-24T03:39:37.291Z,16.87
2023-12-24T03:42:04.784Z,15.17
2023-12-24T03:44:32.254Z,16.77
2023-12-24T03:47:00.266Z,15.60
2023-12-24T03:49:28.017Z,14.57
2023-12-24T03:51:55.487Z,14.00
2023-12-24T03:54:23.119Z,14.57
2023-12-24T03:56:50.794Z,14.23
2023-12-24T03:59:18.546Z,13.63
2023-12-24T04:01:46.364Z,13.00
2023-12-24T04:04:16.196Z,11.33
2023-12-24T04:06:47.696Z,12.57
2023-12-24T04:09:16.002Z,13.47
2023-12-24T04:11:46.534Z,12.93
2023-12-24T04:14:15.024Z,13.30
2023-12-24T04:16:42.932Z,10.33
2023-12-24T04:19:30.100Z,11.10
2023-12-24T04:22:06.960Z,9.13
2023-12-24T04:25:02.308Z,10.53
2023-12-24T04:27:49.107Z,8.60
2023-12-24T04:40:37.838Z,6.87
2023-12-24T04:43:59.024Z,6.50
2023-12-24T04:46:47.710Z,5.13
2023-12-24T04:49:38.802Z,5.50
2023-12-24T04:52:34.487Z,4.90
2023-12-24T04:55:23.036Z,4.07
2023-12-24T04:58:29.798Z,3.97
2023-12-24T05:01:27.663Z,4.63
2023-12-24T05:04:17.923Z,4.50
2023-12-24T05:07:10.123Z,4.73
2023-12-24T05:09:50.686Z,4.70
2023-12-24T05:13:02.135Z,5.07
2023-12-24T05:16:15.014Z,5.17
2023-12-24T05:25:40.363Z,5.00
2023-12-24T05:28:41.661Z,6.23
2023-12-24T05:31:28.482Z,8.83
2023-12-24T05:34:05.845Z,7.40
2023-12-24T05:36:40.264Z,5.27
2023-12-24T05:39:12.366Z,5.20
2023-12-24T05:41:40.085Z,5.00
2023-12-24T05:44:07.769Z,5.70
2023-12-24T05:46:36.323Z,4.70
2023-12-24T05:49:04.926Z,5.03
2023-12-24T05:51:32.449Z,4.23
2023-12-24T05:53:59.990Z,3.87
2023-12-24T05:56:27.859Z,3.20
2023-12-24T05:58:55.687Z,3.87
2023-12-24T06:01:23.212Z,3.20
2023-12-24T06:03:50.795Z,2.93
2023-12-24T06:06:18.308Z,3.20
2023-12-24T06:08:45.867Z,3.67
2023-12-24T06:11:17.156Z,2.87
2023-12-24T06:13:44.984Z,2.60
2023-12-24T06:16:14.147Z,2.37
2023-12-24T06:18:42.471Z,2.73
2023-12-24T06:21:13.374Z,2.87
2023-12-24T06:23:40.861Z,2.90
2023-12-24T06:26:08.682Z,2.57
2023-12-24T06:28:36.265Z,2.63
2023-12-24T06:31:03.756Z,2.60
2023-12-24T06:33:31.346Z,2.13
2023-12-24T06:35:59.144Z,2.90
2023-12-24T06:38:26.673Z,2.43
2023-12-24T06:40:54.234Z,2.30
2023-12-24T06:43:21.753Z,2.20
2023-12-24T06:45:51.063Z,2.63
2023-12-24T06:48:18.970Z,2.10
2023-12-24T06:55:08.017Z,1.50
2023-12-24T06:57:35.493Z,2.17
2023-12-24T07:00:04.306Z,1.80
2023-12-24T07:02:33.385Z,2.03
2023-12-24T07:05:02.989Z,1.80
2023-12-24T07:07:31.100Z,1.80
2023-12-24T07:10:01.561Z,1.67
2023-12-24T07:12:31.466Z,1.57
2023-12-24T07:14:59.112Z,1.80
2023-12-24T07:17:26.942Z,1.60
2023-12-24T07:19:57.050Z,1.77
2023-12-24T07:22:24.791Z,1.77
2023-12-24T07:24:52.229Z,1.50
2023-12-24T07:27:21.477Z,1.27
2023-12-24T07:29:49.038Z,1.57
2023-12-24T07:32:16.500Z,1.50
2023-12-24T07:34:44.262Z,1.50
2023-12-24T07:37:11.689Z,1.13
2023-12-24T07:39:39.224Z,1.10
2023-12-24T07:42:06.898Z,1.20
2023-12-24T07:44:34.311Z,1.10
2023-12-24T07:47:01.788Z,1.07
2023-12-24T07:49:29.540Z,1.00
2023-12-24T07:51:57.372Z,0.97
2023-12-24T08:03:30.768Z,0.90
2023-12-24T08:05:58.430Z,1.00
2023-12-24T08:08:26.107Z,0.77
2023-12-24T08:10:53.776Z,0.80
2023-12-24T08:13:24.493Z,0.70
2023-12-24T08:15:51.969Z,0.70
2023-12-24T08:18:21.466Z,0.80
2023-12-24T08:20:50.098Z,0.80
2023-12-24T08:23:18.026Z,1.13
2023-12-24T08:25:46.923Z,0.80
2023-12-24T08:28:14.737Z,0.80
2023-12-24T08:30:42.351Z,0.97
2023-12-24T08:33:10.406Z,1.07
2023-12-24T08:35:43.249Z,0.80
2023-12-24T08:38:11.728Z,1.07
2023-12-24T08:40:39.295Z,1.00
2023-12-24T08:43:09.456Z,0.70
2023-12-24T08:45:37.288Z,0.70
2023-12-24T08:48:05.047Z,1.10
2023-12-24T08:50:34.087Z,0.90
2023-12-24T08:53:01.716Z,1.50
2023-12-24T08:55:29.180Z,1.20
2023-12-24T08:57:56.929Z,1.20
2023-12-24T09:00:24.504Z,0.90
2023-12-24T09:02:52.474Z,1.13
2023-12-24T09:05:20.529Z,0.77
2023-12-24T09:07:48.163Z,0.90
2023-12-24T09:10:16.316Z,1.00
2023-12-24T09:12:46.716Z,1.20
2023-12-24T09:15:14.848Z,1.00
2023-12-24T09:17:42.927Z,1.10
2023-12-24T09:20:10.822Z,1.23
2023-12-24T09:22:38.292Z,1.10
2023-12-24T09:25:06.567Z,1.13
2023-12-24T09:27:34.183Z,1.00
2023-12-24T09:30:05.675Z,1.40
2023-12-24T09:32:34.880Z,2.03
2023-12-24T09:35:03.009Z,1.33
2023-12-24T09:37:30.644Z,1.40
2023-12-24T09:39:59.251Z,1.80
2023-12-24T09:42:26.969Z,2.03
2023-12-24T09:44:54.427Z,1.40
2023-12-24T09:47:22.143Z,1.20
2023-12-24T09:49:50.082Z,1.80
2023-12-24T09:52:17.906Z,1.57
2023-12-24T09:54:46.174Z,1.70
2023-12-24T09:57:13.751Z,1.43
2023-12-24T09:59:41.303Z,2.00
2023-12-24T10:02:08.819Z,1.70
2023-12-24T10:04:40.711Z,1.33
2023-12-24T10:07:10.549Z,1.37
2023-12-24T10:09:49.414Z,1.10
2023-12-24T10:12:17.300Z,0.90
2023-12-24T10:14:59.947Z,1.40
2023-12-24T10:17:31.495Z,1.30
2023-12-24T10:20:00.254Z,2.50
2023-12-24T10:22:27.938Z,1.73
2023-12-24T10:25:08.371Z,1.63
2023-12-24T10:27:36.392Z,1.50
2023-12-24T10:30:21.935Z,1.63
2023-12-24T10:32:50.183Z,1.80
2023-12-24T10:35:24.472Z,1.23
2023-12-24T10:37:52.050Z,1.50
2023-12-24T10:40:19.769Z,1.57
2023-12-24T10:42:47.547Z,1.90
2023-12-24T10:45:15.174Z,1.20
2023-12-24T10:47:42.800Z,1.83
2023-12-24T10:50:10.718Z,1.27
2023-12-24T10:52:38.889Z,1.63
2023-12-24T10:55:07.047Z,1.57
2023-12-24T10:57:57.147Z,1.70
2023-12-24T11:00:25.996Z,1.30
2023-12-24T11:02:54.201Z,1.70
2023-12-24T11:05:44.785Z,1.80
2023-12-24T11:08:21.816Z,2.27
2023-12-24T11:10:55.147Z,2.30
2023-12-24T11:13:35.383Z,1.40
2023-12-24T11:16:03.964Z,2.00
2023-12-24T11:18:43.995Z,1.77
2023-12-24T11:21:12.789Z,2.07
2023-12-24T11:23:43.426Z,1.90
2023-12-24T11:26:29.251Z,2.03
2023-12-24T11:28:56.756Z,2.20
2023-12-24T11:31:25.302Z,2.63
2023-12-24T11:33:55.664Z,2.40
2023-12-24T11:36:29.769Z,2.07
2023-12-24T11:38:58.893Z,2.33
2023-12-24T11:41:27.335Z,2.50
2023-12-24T11:43:59.741Z,1.87
2023-12-24T11:46:30.837Z,2.47
2023-12-24T11:49:07.800Z,2.50
2023-12-24T11:51:35.522Z,2.93
2023-12-24T11:54:05.153Z,3.30
2023-12-24T11:56:40.734Z,2.73
2023-12-24T11:59:08.344Z,2.57
2023-12-24T12:01:37.918Z,3.30
2023-12-24T12:04:06.480Z,3.00
2023-12-24T12:06:38.691Z,2.47
2023-12-24T12:09:08.084Z,2.63
2023-12-24T12:11:35.874Z,3.23
2023-12-24T12:14:03.712Z,3.33
2023-12-24T12:16:31.614Z,3.17
2023-12-24T12:18:59.375Z,2.80
2023-12-24T12:21:26.876Z,2.37
2023-12-24T12:23:54.894Z,2.47
2023-12-24T12:26:22.324Z,2.30
2023-12-24T12:28:50.341Z,2.60
2023-12-24T12:31:20.355Z,2.20
2023-12-24T12:33:50.161Z,2.50
2023-12-24T12:36:18.449Z,2.70
2023-12-24T12:38:48.990Z,2.30
2023-12-24T12:41:21.663Z,2.23
2023-12-24T12:43:49.447Z,2.77
2023-12-24T12:46:16.881Z,2.37
2023-12-24T12:48:44.516Z,2.07
2023-12-24T12:51:12.196Z,1.80
2023-12-24T12:53:39.721Z,2.40
2023-12-24T12:56:08.961Z,1.97
2023-12-24T12:58:36.918Z,2.73
2023-12-24T13:01:05.072Z,2.77
2023-12-24T13:03:37.090Z,3.23
2023-12-24T13:06:11.868Z,2.97
2023-12-24T13:08:39.936Z,4.97
2023-12-24T13:11:10.198Z,4.17
2023-12-24T13:13:55.687Z,4.30
2023-12-24T13:16:23.225Z,4.20
2023-12-24T13:18:51.258Z,4.10
2023-12-24T13:21:20.034Z,4.30
2023-12-24T13:23:52.110Z,3.97
2023-12-24T13:26:25.894Z,4.83
2023-12-24T13:31:53.148Z,3.97
2023-12-24T13:34:21.884Z,5.37
2023-12-24T13:37:00.042Z,4.67
2023-12-24T13:39:32.309Z,5.50
2023-12-24T13:42:03.839Z,5.47
2023-12-24T13:44:31.325Z,5.70
2023-12-24T13:46:59.359Z,5.77
2023-12-24T13:49:29.192Z,4.40
2023-12-24T13:51:56.847Z,4.53
2023-12-24T13:54:24.778Z,4.47
2023-12-24T13:56:52.801Z,5.63
2023-12-24T13:59:20.821Z,5.10
2023-12-24T14:01:48.286Z,5.17
2023-12-24T14:04:15.919Z,5.27
2023-12-24T14:06:43.707Z,4.13
2023-12-24T14:09:11.362Z,4.30
2023-12-24T14:11:41.610Z,6.40
2023-12-24T14:14:09.952Z,5.40
2023-12-24T14:16:37.498Z,3.73
2023-12-24T14:19:05.015Z,3.70
2023-12-24T14:21:35.017Z,4.07
2023-12-24T14:24:03.598Z,4.50
2023-12-24T14:26:31.594Z,5.40
2023-12-24T14:28:59.460Z,3.77
2023-12-24T14:31:26.953Z,4.97
2023-12-24T14:33:55.106Z,4.80
2023-12-24T14:36:24.864Z,4.33
2023-12-24T14:38:52.818Z,4.77
2023-12-24T14:41:22.872Z,4.70
2023-12-24T14:43:50.669Z,4.47
2023-12-24T14:46:18.077Z,5.63
2023-12-24T14:48:45.975Z,4.27
2023-12-24T14:51:13.598Z,5.00
2023-12-24T14:53:41.806Z,4.37
2023-12-24T14:56:12.772Z,3.73
2023-12-24T14:58:40.389Z,3.90
2023-12-24T15:01:11.475Z,4.23
2023-12-24T15:03:39.498Z,3.83
2023-12-24T15:06:07.190Z,3.00
2023-12-24T15:08:34.799Z,3.63
2023-12-24T15:11:02.730Z,2.83
2023-12-24T15:13:30.287Z,3.13
2023-12-24T15:15:57.692Z,2.47
2023-12-24T15:18:25.203Z,3.67
2023-12-24T15:20:53.551Z,4.07
2023-12-24T15:23:22.711Z,2.80
2023-12-24T15:25:50.147Z,2.63
2023-12-24T15:28:19.578Z,2.40
2023-12-24T15:30:51.470Z,3.70
2023-12-24T15:33:19.067Z,2.40
2023-12-24T15:35:48.415Z,3.20
2023-12-24T15:38:26.444Z,2.93
2023-12-24T15:41:29.203Z,3.17
2023-12-24T15:44:09.175Z,8.47
2023-12-24T15:46:43.734Z,3.27
2023-12-24T15:49:19.527Z,2.30
2023-12-24T15:52:11.891Z,2.00
2023-12-24T15:54:40.002Z,2.67
2023-12-24T15:57:32.550Z,2.30
2023-12-24T16:00:02.936Z,2.43
2023-12-24T16:02:33.927Z,1.90
2023-12-24T16:05:04.471Z,3.80
2023-12-24T16:07:33.292Z,3.53
2023-12-24T16:10:01.996Z,2.90
2023-12-24T16:12:44.076Z,2.43
2023-12-24T16:15:11.644Z,2.87
2023-12-24T16:17:39.737Z,3.37
2023-12-24T16:20:07.987Z,3.10
2023-12-24T16:22:35.919Z,2.80
2023-12-24T16:25:03.484Z,2.80
2023-12-24T16:27:35.995Z,4.23
2023-12-24T16:30:09.146Z,4.23
2023-12-24T16:32:36.911Z,3.73
2023-12-24T16:35:05.878Z,2.93
2023-12-24T16:37:33.673Z,3.30
2023-12-24T16:40:01.069Z,3.67
2023-12-24T16:42:28.590Z,4.23
2023-12-24T16:44:56.040Z,4.57
2023-12-24T16:47:23.490Z,6.80
2023-12-24T16:49:50.939Z,4.97
2023-12-24T16:52:18.400Z,6.67
2023-12-24T16:54:45.918Z,5.67
2023-12-24T16:57:13.303Z,3.87
2023-12-24T16:59:40.798Z,5.20
2023-12-24T17:02:08.227Z,5.00
2023-12-24T17:04:37.081Z,4.77
2023-12-24T17:07:04.772Z,5.30
2023-12-24T17:09:38.778Z,5.27
2023-12-24T17:12:06.818Z,5.53
2023-12-24T17:14:34.465Z,6.40
2023-12-24T17:17:01.905Z,5.93
2023-12-24T17:19:29.349Z,6.37
2023-12-24T17:21:56.827Z,5.73
2023-12-24T17:24:24.273Z,6.43
2023-12-24T17:26:51.714Z,6.37
2023-12-24T17:29:19.997Z,6.43
2023-12-24T17:31:47.427Z,6.47
2023-12-24T17:34:15.101Z,6.07
2023-12-24T17:36:42.793Z,5.83
2023-12-24T17:39:10.286Z,5.27
2023-12-24T17:41:38.837Z,5.37
2023-12-24T17:44:06.427Z,5.53
2023-12-24T17:46:33.902Z,5.27
2023-12-24T17:49:01.460Z,4.83
2023-12-24T17:51:29.080Z,4.83
2023-12-24T17:53:56.946Z,4.90
2023-12-24T17:56:24.577Z,4.67
2023-12-24T17:58:55.983Z,4.13
2023-12-24T18:01:23.378Z,3.50
2023-12-24T18:03:50.970Z,4.67
2023-12-24T18:06:20.585Z,3.57
2023-12-24T18:08:49.868Z,4.10
2023-12-24T18:11:20.242Z,5.37
2023-12-24T18:13:47.982Z,4.23
2023-12-24T18:16:15.406Z,2.80
2023-12-24T18:18:42.883Z,4.03
2023-12-24T18:21:10.840Z,2.47
2023-12-24T18:23:38.323Z,2.70
2023-12-24T18:26:06.680Z,2.00
2023-12-24T18:28:34.280Z,1.63
2023-12-24T18:31:02.884Z,1.77
2023-12-24T18:33:30.588Z,1.60
2023-12-24T18:35:59.318Z,1.70
2023-12-24T18:38:26.811Z,2.03
2023-12-24T18:40:54.283Z,1.43
2023-12-24T18:43:21.687Z,1.40
2023-12-24T18:45:49.244Z,1.70
2023-12-24T18:48:16.842Z,1.60
2023-12-24T18:50:44.713Z,1.07
2023-12-24T18:53:13.679Z,1.63
2023-12-24T18:55:41.349Z,1.80
2023-12-24T18:58:11.000Z,1.50
2023-12-24T19:00:39.073Z,1.20
2023-12-24T19:03:06.680Z,1.87
2023-12-24T19:05:34.277Z,1.87
2023-12-24T19:08:01.864Z,1.60
2023-12-24T19:10:29.422Z,1.80
2023-12-24T19:12:56.934Z,2.00
2023-12-24T19:15:24.539Z,1.90
2023-12-24T19:17:52.107Z,2.03
2023-12-24T19:20:22.105Z,1.50
2023-12-24T19:22:49.756Z,2.30
2023-12-24T19:25:17.512Z,1.50
2023-12-24T19:27:45.149Z,2.37
2023-12-24T19:30:13.113Z,2.10
2023-12-24T19:32:40.578Z,2.17
2023-12-24T19:35:08.371Z,2.00
2023-12-24T19:37:36.150Z,2.03
2023-12-24T19:40:04.103Z,2.40
2023-12-24T19:42:31.962Z,2.80
2023-12-24T19:44:59.469Z,1.80
2023-12-24T19:47:26.905Z,2.10
2023-12-24T19:49:54.402Z,2.33
2023-12-24T19:52:32.820Z,1.77
2023-12-24T19:55:07.648Z,2.33
2023-12-24T19:57:35.125Z,2.40
2023-12-24T20:00:02.639Z,1.90
2023-12-24T20:02:42.715Z,3.27
2023-12-24T20:05:11.104Z,3.97
2023-12-24T20:07:38.656Z,2.20
2023-12-24T20:10:06.326Z,2.10
2023-12-24T20:12:34.095Z,2.10
2023-12-24T20:15:01.758Z,1.80
2023-12-24T20:17:29.339Z,1.80
2023-12-24T20:19:56.862Z,3.00
2023-12-24T20:22:25.676Z,1.60
2023-12-24T20:24:53.844Z,1.50
2023-12-24T20:27:22.742Z,1.57
2023-12-24T20:29:51.942Z,2.07
2023-12-24T20:32:20.258Z,2.27
2023-12-24T20:34:48.444Z,1.63
2023-12-24T20:37:15.951Z,2.03
2023-12-24T20:39:43.437Z,2.30
2023-12-24T20:42:11.579Z,1.83
2023-12-24T20:44:40.641Z,1.93
2023-12-24T20:47:09.276Z,1.80
2023-12-24T20:49:37.915Z,1.70
2023-12-24T20:52:06.943Z,2.00
2023-12-24T20:54:34.922Z,2.00
2023-12-24T20:57:03.201Z,2.37
2023-12-24T20:59:31.030Z,1.50
2023-12-24T21:01:58.647Z,2.60
2023-12-24T21:04:26.273Z,2.17
2023-12-24T21:06:54.378Z,1.90
2023-12-24T21:09:22.200Z,1.97
2023-12-24T21:11:49.796Z,2.33
2023-12-24T21:14:17.356Z,2.40
2023-12-24T21:16:44.781Z,2.00
2023-12-24T21:19:12.250Z,2.50
2023-12-24T21:21:39.681Z,2.57
2023-12-24T21:24:07.247Z,1.97
2023-12-24T21:26:34.816Z,2.70
2023-12-24T21:29:02.364Z,2.10
2023-12-24T21:31:29.864Z,3.07
2023-12-24T21:33:57.293Z,3.17
2023-12-24T21:36:24.804Z,3.63
2023-12-24T21:38:52.262Z,4.17
2023-12-24T21:41:19.876Z,4.13
2023-12-24T21:43:47.485Z,2.67
2023-12-24T21:46:15.811Z,3.60
2023-12-24T21:48:43.392Z,2.27
2023-12-24T21:51:10.935Z,3.60
2023-12-24T21:53:39.171Z,3.50
2023-12-24T21:56:07.539Z,3.43
2023-12-24T21:58:34.914Z,2.77
2023-12-24T22:01:02.857Z,2.27
2023-12-24T22:03:30.748Z,2.93
2023-12-24T22:05:59.575Z,3.00
2023-12-24T22:08:27.776Z,2.37
2023-12-24T22:10:55.276Z,2.37
2023-12-24T22:13:24.599Z,2.77
2023-12-24T22:15:52.285Z,2.83
2023-12-24T22:18:24.163Z,4.40
2023-12-24T22:20:54.721Z,4.77
2023-12-24T22:23:22.303Z,4.70
2023-12-24T22:25:49.677Z,3.93
2023-12-24T22:28:17.431Z,3.27
2023-12-24T22:30:44.950Z,2.63
2023-12-24T22:33:12.629Z,2.70
2023-12-24T22:35:42.478Z,2.73
2023-12-24T22:38:09.944Z,2.10
2023-12-24T22:40:37.420Z,2.73
2023-12-24T22:43:05.065Z,2.30
2023-12-24T22:45:33.923Z,2.87
2023-12-24T22:48:01.913Z,2.70
2023-12-24T22:50:29.648Z,2.80
2023-12-24T22:52:57.193Z,2.67
2023-12-24T22:55:28.819Z,2.63
2023-12-24T22:57:58.500Z,2.30
2023-12-24T23:00:26.962Z,2.17
2023-12-24T23:02:54.649Z,2.70
2023-12-24T23:05:22.168Z,2.60
2023-12-24T23:07:49.580Z,2.87
2023-12-24T23:10:17.159Z,3.67
2023-12-24T23:12:44.641Z,3.40
2023-12-24T23:15:12.152Z,3.10
2023-12-24T23:17:39.683Z,1.73
2023-12-24T23:20:07.532Z,2.77
2023-12-24T23:22:35.088Z,2.97
2023-12-24T23:25:04.017Z,2.87
2023-12-24T23:27:32.007Z,2.60
2023-12-24T23:29:59.481Z,3.70
2023-12-24T23:32:28.275Z,2.37
2023-12-24T23:34:55.821Z,2.33
2023-12-24T23:37:23.726Z,2.50
2023-12-24T23:39:51.220Z,2.47
2023-12-24T23:42:32.111Z,2.60
2023-12-24T23:45:12.775Z,2.37
2023-12-24T23:47:42.323Z,3.87
2023-12-24T23:50:19.106Z,1.93
2023-12-24T23:52:48.340Z,1.93
2023-12-24T23:55:17.288Z,2.30
2023-12-24T23:57:47.800Z,1.70
